createdAt,value
2022-12-13T00:02:19.105Z,62.90
2022-12-13T00:04:49.821Z,64.40
2022-12-13T00:07:20.124Z,60.30
2022-12-13T00:09:50.907Z,64.00
2022-12-13T00:12:21.302Z,63.30
2022-12-13T00:14:51.802Z,62.40
2022-12-13T00:17:22.541Z,62.30
2022-12-13T00:19:53.515Z,60.70
2022-12-13T00:22:25.408Z,61.70
2022-12-13T00:25:00.418Z,63.40
2022-12-13T00:27:31.320Z,62.10
2022-12-13T00:30:01.971Z,62.00
2022-12-13T00:32:32.751Z,62.60
2022-12-13T00:35:04.274Z,62.20
2022-12-13T00:37:34.955Z,62.40
2022-12-13T00:40:05.221Z,64.30
2022-12-13T00:42:37.153Z,63.90
2022-12-13T00:45:07.755Z,62.20
2022-12-13T00:47:38.664Z,62.20
2022-12-13T00:50:09.554Z,64.60
2022-12-13T00:53:12.657Z,61.70
2022-12-13T00:55:46.374Z,62.00
2022-12-13T00:58:17.155Z,59.50
2022-12-13T01:00:48.481Z,61.80
2022-12-13T01:03:27.904Z,60.90
2022-12-13T01:06:14.985Z,61.70
2022-12-13T01:08:48.124Z,62.20
2022-12-13T01:11:19.118Z,61.90
2022-12-13T01:13:50.449Z,61.20
2022-12-13T01:16:21.599Z,62.70
2022-12-13T01:18:52.378Z,63.20
2022-12-13T01:21:23.653Z,62.50
2022-12-13T01:23:55.577Z,61.70
2022-12-13T01:26:26.262Z,60.50
2022-12-13T01:28:57.133Z,60.10
2022-12-13T01:31:28.970Z,60.80
2022-12-13T01:34:01.256Z,60.60
2022-12-13T01:36:31.817Z,60.10
2022-12-13T01:39:14.796Z,57.80
2022-12-13T01:41:53.273Z,58.60
2022-12-13T01:45:00.602Z,57.60
2022-12-13T01:47:44.399Z,59.40
2022-12-13T01:50:19.747Z,59.00
2022-12-13T01:52:51.758Z,58.30
2022-12-13T01:55:25.296Z,58.40
2022-12-13T01:57:57.817Z,60.10
2022-12-13T02:00:30.192Z,59.20
2022-12-13T02:03:02.540Z,59.30
2022-12-13T02:05:44.679Z,59.10
2022-12-13T02:08:18.503Z,58.90
2022-12-13T02:10:52.843Z,57.80
2022-12-13T02:13:23.520Z,60.60
2022-12-13T02:16:13.825Z,61.20
2022-12-13T02:19:00.438Z,61.50
2022-12-13T02:21:34.668Z,61.60
2022-12-13T02:24:12.200Z,63.20
2022-12-13T02:26:57.807Z,62.50
2022-12-13T02:30:06.522Z,62.40
2022-12-13T02:32:59.290Z,60.10
2022-12-13T02:35:40.940Z,56.60
2022-12-13T02:38:16.766Z,55.40
2022-12-13T02:41:07.048Z,59.20
2022-12-13T02:44:01.411Z,61.20
2022-12-13T02:46:38.124Z,61.70
2022-12-13T02:49:12.896Z,60.10
2022-12-13T02:51:44.728Z,61.10
2022-12-13T02:54:15.513Z,62.50
2022-12-13T02:56:55.650Z,60.90
2022-12-13T02:59:39.113Z,59.00
2022-12-13T03:02:34.370Z,58.10
2022-12-13T03:05:38.822Z,60.40
2022-12-13T03:08:41.014Z,60.20
2022-12-13T03:11:16.962Z,60.50
2022-12-13T03:13:56.648Z,59.60
2022-12-13T03:16:47.242Z,58.30
2022-12-13T03:19:18.226Z,59.40
2022-12-13T03:21:52.000Z,59.80
2022-12-13T03:24:24.283Z,59.20
2022-12-13T03:26:55.639Z,59.50
2022-12-13T03:29:26.626Z,56.30
2022-12-13T03:31:57.986Z,57.50
2022-12-13T03:34:44.068Z,57.60
2022-12-13T03:37:16.516Z,56.60
2022-12-13T03:39:47.585Z,56.20
2022-12-13T03:42:19.922Z,56.10
2022-12-13T03:44:52.313Z,57.30
2022-12-13T03:47:23.282Z,57.10
2022-12-13T03:49:54.188Z,56.30
2022-12-13T03:52:25.276Z,55.10
2022-12-13T03:54:57.717Z,56.60
2022-12-13T03:57:28.735Z,58.50
2022-12-13T03:59:59.440Z,57.30
2022-12-13T04:02:31.266Z,58.70
2022-12-13T04:05:06.333Z,57.20
2022-12-13T04:07:47.987Z,57.20
2022-12-13T04:10:25.899Z,55.80
2022-12-13T04:13:16.173Z,56.60
2022-12-13T04:15:52.934Z,59.50
2022-12-13T04:18:24.031Z,57.80
2022-12-13T04:20:54.929Z,57.90
2022-12-13T04:23:25.592Z,58.30
2022-12-13T04:25:56.180Z,56.50
2022-12-13T04:28:26.458Z,57.70
2022-12-13T04:30:58.496Z,58.50
2022-12-13T04:33:29.340Z,60.20
2022-12-13T04:36:00.930Z,58.50
2022-12-13T04:38:31.836Z,56.90
2022-12-13T04:41:11.442Z,57.00
2022-12-13T04:43:46.468Z,58.50
2022-12-13T04:46:17.550Z,60.10
2022-12-13T04:48:48.294Z,57.40
2022-12-13T04:51:19.923Z,57.80
2022-12-13T04:53:50.609Z,56.10
2022-12-13T04:56:21.997Z,56.80
2022-12-13T04:58:52.981Z,56.80
2022-12-13T05:01:23.956Z,56.70
2022-12-13T05:03:56.157Z,57.40
2022-12-13T05:06:27.922Z,59.80
2022-12-13T05:09:00.997Z,59.40
2022-12-13T05:11:36.016Z,60.20
2022-12-13T05:14:10.063Z,59.10
2022-12-13T05:16:41.037Z,57.70
2022-12-13T05:19:12.113Z,60.20
2022-12-13T05:21:43.006Z,59.00
2022-12-13T05:24:13.726Z,59.60
2022-12-13T05:26:44.447Z,56.40
2022-12-13T05:29:14.862Z,60.00
2022-12-13T05:31:45.372Z,59.00
2022-12-13T05:34:16.623Z,59.00
2022-12-13T05:36:46.922Z,60.20
2022-12-13T05:39:28.870Z,58.80
2022-12-13T05:42:02.690Z,59.40
2022-12-13T05:44:34.966Z,59.80
2022-12-13T05:47:05.310Z,58.70
2022-12-13T05:49:35.703Z,59.20
2022-12-13T05:52:17.550Z,60.20
2022-12-13T05:54:48.092Z,58.00
2022-12-13T05:57:21.246Z,60.90
2022-12-13T05:59:51.753Z,59.00
2022-12-13T06:02:22.166Z,60.10
2022-12-13T06:04:52.607Z,60.00
2022-12-13T06:07:22.810Z,58.50
2022-12-13T06:09:53.114Z,59.30
2022-12-13T06:12:43.348Z,60.00
2022-12-13T06:15:22.690Z,56.60
2022-12-13T06:17:53.867Z,58.40
2022-12-13T06:20:24.937Z,59.90
2022-12-13T06:22:56.243Z,59.40
2022-12-13T06:25:31.386Z,60.10
2022-12-13T06:28:05.329Z,58.40
2022-12-13T06:30:35.733Z,59.00
2022-12-13T06:33:14.164Z,58.20
2022-12-13T06:35:54.466Z,59.60
2022-12-13T06:38:32.212Z,60.20
2022-12-13T06:41:16.423Z,58.40
2022-12-13T06:43:48.538Z,60.40
2022-12-13T06:46:20.456Z,60.80
2022-12-13T06:48:52.005Z,60.80
2022-12-13T06:51:32.508Z,60.50
2022-12-13T06:54:05.000Z,60.70
2022-12-13T06:56:35.667Z,61.50
2022-12-13T06:59:05.958Z,61.20
2022-12-13T07:01:37.598Z,60.10
2022-12-13T07:04:28.893Z,61.60
2022-12-13T07:07:02.237Z,60.70
2022-12-13T07:09:33.809Z,61.60
2022-12-13T07:12:05.277Z,62.80
2022-12-13T07:14:40.895Z,59.80
2022-12-13T07:17:12.461Z,61.10
2022-12-13T07:20:02.408Z,59.80
2022-12-13T07:22:34.628Z,60.80
2022-12-13T07:25:08.066Z,60.20
2022-12-13T07:28:07.244Z,60.80
2022-12-13T07:30:42.366Z,62.10
2022-12-13T07:33:13.618Z,61.10
2022-12-13T07:35:55.176Z,62.00
2022-12-13T07:38:28.166Z,62.20
2022-12-13T07:41:01.257Z,61.90
2022-12-13T07:43:32.168Z,61.00
2022-12-13T07:46:03.637Z,62.10
2022-12-13T07:48:34.988Z,60.70
2022-12-13T07:51:08.617Z,60.90
2022-12-13T07:53:40.060Z,62.10
2022-12-13T07:56:12.843Z,62.80
2022-12-13T07:58:47.563Z,63.20
2022-12-13T08:01:19.489Z,62.40
2022-12-13T08:03:52.982Z,61.70
2022-12-13T08:06:23.325Z,62.90
2022-12-13T08:08:57.371Z,64.30
2022-12-13T08:11:27.781Z,63.20
2022-12-13T08:13:58.291Z,63.40
2022-12-13T08:16:29.852Z,64.40
2022-12-13T08:19:04.665Z,64.10
2022-12-13T08:22:01.590Z,63.70
2022-12-13T08:24:34.769Z,63.30
2022-12-13T08:27:06.745Z,63.20
2022-12-13T08:29:39.220Z,65.10
2022-12-13T08:32:13.935Z,63.50
2022-12-13T08:34:45.401Z,64.60
2022-12-13T08:37:16.803Z,65.30
2022-12-13T08:39:47.662Z,65.00
2022-12-13T08:42:20.774Z,65.10
2022-12-13T08:44:56.619Z,64.00
2022-12-13T08:47:32.740Z,63.50
2022-12-13T08:50:05.902Z,65.70
2022-12-13T08:52:42.628Z,66.00
2022-12-13T08:55:19.065Z,64.70
2022-12-13T08:57:56.805Z,63.80
2022-12-13T09:00:36.653Z,65.10
2022-12-13T09:03:10.119Z,65.50
2022-12-13T09:05:42.093Z,65.30
2022-12-13T09:08:24.729Z,66.40
2022-12-13T09:11:10.701Z,65.80
2022-12-13T09:13:52.206Z,66.40
2022-12-13T09:16:27.958Z,67.10
2022-12-13T09:19:25.306Z,67.30
2022-12-13T09:22:03.045Z,67.10
2022-12-13T09:24:36.120Z,66.50
2022-12-13T09:27:10.143Z,67.10
2022-12-13T09:29:41.674Z,67.10
2022-12-13T09:32:13.618Z,67.00
2022-12-13T09:34:46.239Z,67.90
2022-12-13T09:37:23.005Z,67.60
2022-12-13T09:39:55.034Z,67.60
2022-12-13T09:42:34.539Z,68.20
2022-12-13T09:45:22.209Z,67.30
2022-12-13T09:48:01.290Z,67.70
2022-12-13T09:50:46.387Z,67.60
2022-12-13T09:53:33.636Z,68.40
2022-12-13T09:56:10.894Z,68.30
2022-12-13T09:58:42.298Z,68.30
2022-12-13T10:01:14.781Z,68.00
2022-12-13T10:03:58.453Z,69.70
2022-12-13T10:06:33.594Z,68.50
2022-12-13T10:09:04.902Z,69.40
2022-12-13T10:11:35.628Z,69.10
2022-12-13T10:14:13.958Z,68.10
2022-12-13T10:16:54.752Z,68.70
2022-12-13T10:19:36.592Z,69.10
2022-12-13T10:22:11.549Z,69.90
2022-12-13T10:24:55.862Z,70.20
2022-12-13T10:27:47.665Z,69.90
2022-12-13T10:30:42.673Z,70.80
2022-12-13T10:33:42.562Z,69.90
2022-12-13T10:36:50.195Z,69.60
2022-12-13T10:39:45.981Z,70.00
2022-12-13T10:42:25.020Z,70.80
2022-12-13T10:45:23.433Z,71.10
2022-12-13T10:48:03.840Z,71.30
2022-12-13T10:50:35.555Z,71.60
2022-12-13T10:53:06.663Z,71.80
2022-12-13T10:55:42.757Z,71.60
2022-12-13T10:58:23.011Z,72.10
2022-12-13T11:00:54.277Z,72.00
2022-12-13T11:03:37.857Z,72.10
2022-12-13T11:06:23.006Z,72.70
2022-12-13T11:08:55.758Z,73.00
2022-12-13T11:11:33.489Z,72.90
2022-12-13T11:14:05.705Z,73.90
2022-12-13T11:16:42.186Z,74.30
2022-12-13T11:19:27.384Z,74.30
2022-12-13T11:21:59.361Z,73.40
2022-12-13T11:24:35.535Z,74.10
2022-12-13T11:27:35.467Z,75.10
2022-12-13T11:30:24.652Z,75.50
2022-12-13T11:33:03.000Z,74.50
2022-12-13T11:36:05.637Z,75.30
2022-12-13T11:38:58.068Z,76.20
2022-12-13T11:41:41.293Z,77.50
2022-12-13T11:44:31.376Z,78.60
2022-12-13T11:47:05.018Z,78.40
2022-12-13T11:49:42.991Z,78.80
2022-12-13T11:52:43.993Z,78.80
2022-12-13T11:55:44.258Z,79.30
2022-12-13T11:59:01.764Z,79.30
2022-12-13T12:01:52.669Z,78.80
2022-12-13T12:04:36.441Z,77.70
2022-12-13T12:07:36.148Z,78.50
2022-12-13T12:10:38.332Z,79.50
2022-12-13T12:13:25.175Z,79.90
2022-12-13T12:16:11.235Z,81.40
2022-12-13T12:18:42.639Z,81.80
2022-12-13T12:24:49.256Z,83.20
2022-12-13T12:27:25.854Z,83.70
2022-12-13T12:30:47.147Z,82.60
2022-12-13T12:33:43.534Z,82.10
2022-12-13T12:36:24.254Z,81.80
2022-12-13T12:39:26.867Z,81.20
2022-12-13T12:42:28.061Z,82.30
2022-12-13T12:45:27.110Z,82.10
2022-12-13T12:51:14.983Z,81.50
2022-12-13T12:54:11.073Z,81.40
2022-12-13T12:56:53.292Z,80.90
2022-12-13T12:59:30.261Z,81.10
2022-12-13T13:02:16.158Z,80.40
2022-12-13T13:04:58.918Z,80.00
2022-12-13T13:07:40.365Z,79.70
2022-12-13T13:10:16.870Z,79.20
2022-12-13T13:13:11.289Z,78.80
2022-12-13T13:16:00.312Z,77.70
2022-12-13T13:18:56.150Z,77.40
2022-12-13T13:21:27.781Z,77.30
2022-12-13T13:24:20.247Z,75.50
2022-12-13T13:27:12.241Z,76.40
2022-12-13T13:29:44.625Z,74.80
2022-12-13T13:32:34.911Z,74.70
2022-12-13T13:35:38.159Z,74.70
2022-12-13T13:38:50.182Z,72.50
2022-12-13T13:41:52.705Z,72.90
2022-12-13T13:44:49.345Z,74.00
2022-12-13T13:47:22.875Z,71.60
2022-12-13T13:50:25.467Z,72.50
2022-12-13T13:53:21.102Z,72.90
2022-12-13T13:56:10.892Z,73.00
2022-12-13T13:59:08.408Z,73.90
2022-12-13T14:02:08.141Z,73.90
2022-12-13T14:04:56.754Z,73.30
2022-12-13T14:07:48.399Z,74.20
2022-12-13T14:10:48.620Z,73.10
2022-12-13T14:13:45.303Z,73.10
2022-12-13T14:16:33.777Z,73.70
2022-12-13T14:19:37.810Z,73.30
2022-12-13T14:22:26.707Z,73.50
2022-12-13T14:25:04.580Z,72.40
2022-12-13T14:27:46.612Z,72.80
2022-12-13T14:30:28.595Z,72.50
2022-12-13T14:33:01.375Z,74.40
2022-12-13T14:35:36.516Z,74.80
2022-12-13T14:38:25.281Z,74.70
2022-12-13T14:41:00.245Z,75.30
2022-12-13T14:43:51.847Z,75.60
2022-12-13T14:46:22.648Z,75.90
2022-12-13T14:48:57.294Z,76.50
2022-12-13T14:51:34.916Z,76.70
2022-12-13T14:54:09.552Z,75.40
2022-12-13T14:57:01.710Z,76.20
2022-12-13T14:59:34.261Z,75.10
2022-12-13T15:02:08.784Z,76.10
2022-12-13T15:04:40.130Z,75.90
2022-12-13T15:07:39.671Z,76.20
2022-12-13T15:10:30.039Z,77.00
2022-12-13T15:13:03.854Z,77.50
2022-12-13T15:15:40.402Z,78.80
2022-12-13T15:18:24.850Z,79.40
2022-12-13T15:20:57.799Z,80.20
2022-12-13T15:23:41.727Z,80.70
2022-12-13T15:26:40.044Z,81.10
2022-12-13T15:29:11.681Z,81.50
2022-12-13T15:31:48.809Z,81.10
2022-12-13T15:34:32.198Z,81.00
2022-12-13T15:37:07.840Z,81.90
2022-12-13T15:40:04.269Z,81.50
2022-12-13T15:42:42.326Z,80.00
2022-12-13T15:45:37.062Z,78.40
2022-12-13T15:48:08.782Z,79.10
2022-12-13T15:50:49.043Z,78.30
2022-12-13T15:53:31.306Z,77.20
2022-12-13T15:56:07.820Z,77.80
2022-12-13T15:58:41.328Z,77.10
2022-12-13T16:01:32.151Z,77.00
2022-12-13T16:04:05.722Z,77.30
2022-12-13T16:06:37.257Z,76.70
2022-12-13T16:09:11.072Z,77.00
2022-12-13T16:12:31.011Z,78.90
2022-12-13T16:15:32.181Z,77.30
2022-12-13T16:18:55.387Z,78.40
2022-12-13T16:21:26.766Z,79.60
2022-12-13T16:23:58.623Z,79.70
2022-12-13T16:26:31.928Z,80.00
2022-12-13T16:29:02.833Z,80.70
2022-12-13T16:31:38.458Z,80.60
2022-12-13T16:34:10.077Z,80.30
2022-12-13T16:36:41.149Z,80.00
2022-12-13T16:39:18.928Z,80.20
2022-12-13T16:41:50.552Z,80.60
2022-12-13T16:44:44.811Z,81.20
2022-12-13T16:47:24.809Z,82.00
2022-12-13T16:50:11.282Z,82.80
2022-12-13T16:52:43.885Z,83.40
2022-12-13T16:55:15.098Z,83.00
2022-12-13T16:57:45.921Z,83.00
2022-12-13T17:00:17.416Z,82.60
2022-12-13T17:02:48.429Z,81.60
2022-12-13T17:05:20.432Z,81.50
2022-12-13T17:07:53.087Z,81.70
2022-12-13T17:10:23.969Z,80.30
2022-12-13T17:12:55.184Z,81.00
2022-12-13T17:15:27.449Z,80.00
2022-12-13T17:17:58.229Z,79.80
2022-12-13T17:20:29.591Z,80.60
2022-12-13T17:23:01.882Z,81.70
2022-12-13T17:25:32.599Z,81.40
2022-12-13T17:28:06.723Z,81.80
2022-12-13T17:30:39.212Z,83.00
2022-12-13T17:33:11.939Z,84.10
2022-12-13T17:35:44.672Z,85.00
2022-12-13T17:38:15.160Z,85.20
2022-12-13T17:40:54.452Z,85.80
2022-12-13T17:43:33.783Z,86.80
2022-12-13T17:46:12.029Z,87.90
2022-12-13T17:48:44.210Z,88.20
2022-12-13T17:51:16.657Z,88.80
2022-12-13T17:53:47.389Z,89.10
2022-12-13T17:56:19.724Z,88.10
2022-12-13T17:58:50.212Z,88.90
2022-12-13T18:01:23.666Z,88.60
2022-12-13T18:03:59.478Z,89.10
2022-12-13T18:06:33.441Z,89.20
2022-12-13T18:09:04.054Z,89.50
2022-12-13T18:11:35.233Z,89.50
2022-12-13T18:14:08.275Z,89.50
2022-12-13T18:16:39.627Z,89.70
2022-12-13T18:19:13.920Z,90.10
2022-12-13T18:21:48.071Z,89.80
2022-12-13T18:24:18.994Z,90.10
2022-12-13T18:26:50.279Z,89.40
2022-12-13T18:29:21.547Z,89.40
2022-12-13T18:31:54.066Z,89.30
2022-12-13T18:34:24.836Z,89.90
2022-12-13T18:36:55.641Z,90.00
2022-12-13T18:39:26.309Z,90.00
2022-12-13T18:41:57.151Z,89.70
2022-12-13T18:44:28.694Z,90.20
2022-12-13T18:47:00.137Z,90.20
2022-12-13T18:49:31.158Z,89.70
2022-12-13T18:52:02.730Z,89.80
2022-12-13T18:54:33.100Z,90.10
2022-12-13T18:57:03.331Z,90.20
2022-12-13T18:59:34.985Z,89.90
2022-12-13T19:02:05.298Z,89.30
2022-12-13T19:04:37.392Z,89.30
2022-12-13T19:07:07.745Z,89.40
2022-12-13T19:09:39.041Z,90.00
2022-12-13T19:12:09.419Z,89.00
2022-12-13T19:14:40.429Z,89.40
2022-12-13T19:17:10.745Z,89.00
2022-12-13T19:19:41.227Z,88.90
2022-12-13T19:22:12.558Z,88.90
2022-12-13T19:24:42.983Z,89.20
2022-12-13T19:27:13.253Z,88.90
2022-12-13T19:29:43.957Z,88.30
2022-12-13T19:32:14.279Z,87.90
2022-12-13T19:34:45.120Z,87.70
2022-12-13T19:37:15.787Z,88.70
2022-12-13T19:39:46.615Z,87.10
2022-12-13T19:42:16.986Z,88.30
2022-12-13T19:44:47.305Z,88.80
2022-12-13T19:47:18.090Z,88.90
2022-12-13T19:49:48.452Z,88.70
2022-12-13T19:52:18.675Z,87.90
2022-12-13T19:54:49.020Z,87.90
2022-12-13T19:57:19.300Z,87.20
2022-12-13T19:59:49.998Z,87.00
2022-12-13T20:02:20.378Z,88.50
2022-12-13T20:04:51.798Z,87.30
2022-12-13T20:07:22.561Z,86.70
2022-12-13T20:09:52.950Z,86.50
2022-12-13T20:12:23.252Z,86.70
2022-12-13T20:14:53.619Z,86.70
2022-12-13T20:17:23.919Z,87.00
2022-12-13T20:19:54.280Z,87.00
2022-12-13T20:22:24.699Z,86.30
2022-12-13T20:24:55.392Z,85.10
2022-12-13T20:27:28.736Z,85.20
2022-12-13T20:29:59.421Z,85.40
2022-12-13T20:32:29.784Z,85.80
2022-12-13T20:35:00.483Z,84.00
2022-12-13T20:37:32.196Z,83.80
2022-12-13T20:40:03.090Z,83.30
2022-12-13T20:42:33.394Z,82.50
2022-12-13T20:45:04.846Z,82.30
2022-12-13T20:47:37.829Z,81.20
2022-12-13T20:50:09.186Z,82.10
2022-12-13T20:52:42.506Z,81.70
2022-12-13T20:55:15.919Z,81.10
2022-12-13T20:57:46.174Z,78.80
2022-12-13T21:00:17.619Z,79.80
2022-12-13T21:02:47.889Z,80.60
2022-12-13T21:05:20.867Z,79.60
2022-12-13T21:08:09.084Z,78.40
2022-12-13T21:10:39.758Z,79.30
2022-12-13T21:13:10.091Z,79.60
2022-12-13T21:15:40.528Z,80.10
2022-12-13T21:18:10.804Z,78.10
2022-12-13T21:20:41.052Z,74.70
2022-12-13T21:23:11.384Z,75.60
2022-12-13T21:25:42.790Z,75.60
2022-12-13T21:28:12.989Z,73.00
2022-12-13T21:30:44.527Z,73.40
2022-12-13T21:33:14.785Z,72.70
2022-12-13T21:35:45.000Z,71.80
2022-12-13T21:38:27.844Z,71.60
2022-12-13T21:40:58.716Z,67.30
2022-12-13T21:43:41.291Z,67.70
2022-12-13T21:46:17.602Z,66.40
2022-12-13T21:48:49.683Z,67.50
2022-12-13T21:51:24.212Z,66.90
2022-12-13T21:53:56.291Z,65.30
2022-12-13T21:56:47.794Z,58.20
2022-12-13T21:59:24.259Z,58.90
2022-12-13T22:02:19.601Z,57.50
2022-12-13T22:04:57.841Z,60.20
2022-12-13T22:07:36.533Z,60.70
2022-12-13T22:10:07.805Z,60.30
2022-12-13T22:12:41.588Z,60.40
2022-12-13T22:15:18.646Z,60.30
2022-12-13T22:17:49.358Z,61.60
2022-12-13T22:20:19.786Z,60.50
2022-12-13T22:22:50.688Z,58.40
2022-12-13T22:25:21.622Z,58.90
2022-12-13T22:27:53.240Z,58.70
2022-12-13T22:30:23.537Z,58.90
2022-12-13T22:32:55.951Z,58.70
2022-12-13T22:35:26.255Z,59.00
2022-12-13T22:38:01.290Z,57.00
2022-12-13T22:40:33.285Z,56.30
2022-12-13T22:43:04.296Z,58.80
2022-12-13T22:45:34.567Z,59.80
2022-12-13T22:48:04.966Z,57.30
2022-12-13T22:50:35.447Z,57.10
2022-12-13T22:53:06.602Z,57.80
2022-12-13T22:55:39.642Z,53.90
2022-12-13T22:58:10.541Z,55.20
2022-12-13T23:00:40.897Z,56.00
2022-12-13T23:03:12.480Z,56.20
2022-12-13T23:05:43.167Z,56.30
2022-12-13T23:08:14.224Z,56.20
2022-12-13T23:11:02.253Z,56.90
2022-12-13T23:13:32.532Z,56.70
2022-12-13T23:16:02.809Z,56.70
2022-12-13T23:18:33.059Z,57.30
2022-12-13T23:21:03.692Z,55.70
2022-12-13T23:23:35.142Z,55.60
2022-12-13T23:26:21.003Z,56.30
2022-12-13T23:28:54.051Z,54.20
2022-12-13T23:31:25.212Z,57.90
2022-12-13T23:33:57.377Z,52.80
2022-12-13T23:36:30.097Z,53.80
2022-12-13T23:39:05.047Z,55.10
2022-12-13T23:41:37.684Z,54.70
2022-12-13T23:44:08.098Z,54.70
2022-12-13T23:46:39.252Z,56.60
2022-12-13T23:49:11.211Z,56.90
2022-12-13T23:51:41.659Z,55.50
2022-12-13T23:54:19.328Z,54.20
2022-12-13T23:56:50.082Z,55.80
2022-12-13T23:59:20.756Z,52.20
